sensor_id;sensor_type;location;lat;lon;timestamp;P1;durP1;ratioP1;P2;durP2;ratioP2
15764;SDS011;7983;50.744;7.086;2022-07-11T00:00:08;2.00;;;1.10;;
15764;SDS011;7983;50.744;7.086;2022-07-11T00:02:36;1.48;;;1.15;;
15764;SDS011;7983;50.744;7.086;2022-07-11T00:05:02;1.75;;;1.10;;
15764;SDS011;7983;50.744;7.086;2022-07-11T00:07:28;1.33;;;0.93;;
15764;SDS011;7983;50.744;7.086;2022-07-11T00:09:54;1.13;;;0.95;;
15764;SDS011;7983;50.744;7.086;2022-07-11T00:12:19;2.03;;;1.10;;
15764;SDS011;7983;50.744;7.086;2022-07-11T00:14:52;1.70;;;1.05;;
15764;SDS011;7983;50.744;7.086;2022-07-11T00:17:23;0.98;;;0.80;;
15764;SDS011;7983;50.744;7.086;2022-07-11T00:19:49;1.15;;;1.05;;
15764;SDS011;7983;50.744;7.086;2022-07-11T00:22:15;1.65;;;1.10;;
15764;SDS011;7983;50.744;7.086;2022-07-11T00:24:43;2.88;;;1.27;;
15764;SDS011;7983;50.744;7.086;2022-07-11T00:27:09;2.13;;;1.25;;
15764;SDS011;7983;50.744;7.086;2022-07-11T00:29:38;1.80;;;1.05;;
15764;SDS011;7983;50.744;7.086;2022-07-11T00:32:04;2.47;;;1.23;;
15764;SDS011;7983;50.744;7.086;2022-07-11T00:34:35;1.90;;;1.38;;
15764;SDS011;7983;50.744;7.086;2022-07-11T00:37:03;1.48;;;1.20;;
15764;SDS011;7983;50.744;7.086;2022-07-11T00:39:29;1.52;;;1.17;;
15764;SDS011;7983;50.744;7.086;2022-07-11T00:41:57;2.17;;;1.08;;
15764;SDS011;7983;50.744;7.086;2022-07-11T00:44:23;1.58;;;1.10;;
15764;SDS011;7983;50.744;7.086;2022-07-11T00:46:54;3.47;;;1.25;;
15764;SDS011;7983;50.744;7.086;2022-07-11T00:49:20;3.22;;;1.50;;
15764;SDS011;7983;50.744;7.086;2022-07-11T00:51:46;1.73;;;1.40;;
15764;SDS011;7983;50.744;7.086;2022-07-11T00:54:13;1.95;;;1.40;;
15764;SDS011;7983;50.744;7.086;2022-07-11T00:56:41;2.85;;;1.38;;
15764;SDS011;7983;50.744;7.086;2022-07-11T00:59:07;2.20;;;1.40;;
15764;SDS011;7983;50.744;7.086;2022-07-11T01:01:33;2.05;;;1.27;;
15764;SDS011;7983;50.744;7.086;2022-07-11T01:04:05;4.38;;;1.23;;
15764;SDS011;7983;50.744;7.086;2022-07-11T01:06:31;2.25;;;1.50;;
15764;SDS011;7983;50.744;7.086;2022-07-11T01:08:56;3.28;;;1.38;;
15764;SDS011;7983;50.744;7.086;2022-07-11T01:11:22;1.52;;;1.25;;
15764;SDS011;7983;50.744;7.086;2022-07-11T01:13:48;2.78;;;1.52;;
15764;SDS011;7983;50.744;7.086;2022-07-11T01:16:17;2.35;;;1.40;;
15764;SDS011;7983;50.744;7.086;2022-07-11T01:18:45;1.88;;;1.50;;
15764;SDS011;7983;50.744;7.086;2022-07-11T01:23:53;2.38;;;1.45;;
15764;SDS011;7983;50.744;7.086;2022-07-11T01:26:22;2.10;;;1.38;;
15764;SDS011;7983;50.744;7.086;2022-07-11T01:28:49;5.13;;;1.48;;
15764;SDS011;7983;50.744;7.086;2022-07-11T01:31:19;5.07;;;1.48;;
15764;SDS011;7983;50.744;7.086;2022-07-11T01:33:45;2.58;;;1.70;;
15764;SDS011;7983;50.744;7.086;2022-07-11T01:36:13;4.60;;;2.00;;
15764;SDS011;7983;50.744;7.086;2022-07-11T01:38:41;2.22;;;1.48;;
15764;SDS011;7983;50.744;7.086;2022-07-11T01:41:12;1.83;;;1.40;;
15764;SDS011;7983;50.744;7.086;2022-07-11T01:43:37;3.40;;;1.70;;
15764;SDS011;7983;50.744;7.086;2022-07-11T01:46:05;2.63;;;1.85;;
15764;SDS011;7983;50.744;7.086;2022-07-11T01:48:31;2.58;;;1.60;;
15764;SDS011;7983;50.744;7.086;2022-07-11T01:50:57;2.83;;;1.70;;
15764;SDS011;7983;50.744;7.086;2022-07-11T01:53:23;2.25;;;1.67;;
15764;SDS011;7983;50.744;7.086;2022-07-11T01:55:49;3.50;;;1.58;;
15764;SDS011;7983;50.744;7.086;2022-07-11T01:58:15;2.70;;;1.55;;
15764;SDS011;7983;50.744;7.086;2022-07-11T02:00:41;4.80;;;2.00;;
15764;SDS011;7983;50.744;7.086;2022-07-11T02:03:10;2.75;;;1.80;;
15764;SDS011;7983;50.744;7.086;2022-07-11T02:05:39;3.65;;;1.65;;
15764;SDS011;7983;50.744;7.086;2022-07-11T02:08:05;2.25;;;1.58;;
15764;SDS011;7983;50.744;7.086;2022-07-11T02:10:43;4.07;;;1.73;;
15764;SDS011;7983;50.744;7.086;2022-07-11T02:13:14;1.77;;;1.30;;
15764;SDS011;7983;50.744;7.086;2022-07-11T02:15:45;2.47;;;1.70;;
15764;SDS011;7983;50.744;7.086;2022-07-11T02:18:13;2.38;;;1.38;;
15764;SDS011;7983;50.744;7.086;2022-07-11T02:20:45;1.90;;;1.42;;
15764;SDS011;7983;50.744;7.086;2022-07-11T02:23:19;2.55;;;1.48;;
15764;SDS011;7983;50.744;7.086;2022-07-11T02:25:45;2.15;;;1.40;;
15764;SDS011;7983;50.744;7.086;2022-07-11T02:28:12;2.70;;;1.50;;
15764;SDS011;7983;50.744;7.086;2022-07-11T02:30:43;2.15;;;1.40;;
15764;SDS011;7983;50.744;7.086;2022-07-11T02:33:12;2.47;;;1.42;;
15764;SDS011;7983;50.744;7.086;2022-07-11T02:35:44;1.70;;;1.33;;
15764;SDS011;7983;50.744;7.086;2022-07-11T02:38:20;3.33;;;1.95;;
15764;SDS011;7983;50.744;7.086;2022-07-11T02:40:46;2.13;;;1.50;;
15764;SDS011;7983;50.744;7.086;2022-07-11T02:43:12;3.13;;;1.58;;
15764;SDS011;7983;50.744;7.086;2022-07-11T02:45:42;1.77;;;1.40;;
15764;SDS011;7983;50.744;7.086;2022-07-11T02:48:08;1.67;;;1.52;;
15764;SDS011;7983;50.744;7.086;2022-07-11T02:50:34;3.22;;;1.60;;
15764;SDS011;7983;50.744;7.086;2022-07-11T02:53:02;3.17;;;1.73;;
15764;SDS011;7983;50.744;7.086;2022-07-11T02:55:27;3.70;;;1.60;;
15764;SDS011;7983;50.744;7.086;2022-07-11T02:57:55;3.03;;;1.75;;
15764;SDS011;7983;50.744;7.086;2022-07-11T03:00:26;2.55;;;1.80;;
15764;SDS011;7983;50.744;7.086;2022-07-11T03:02:52;2.90;;;1.60;;
15764;SDS011;7983;50.744;7.086;2022-07-11T03:05:18;4.43;;;1.88;;
15764;SDS011;7983;50.744;7.086;2022-07-11T03:07:44;3.33;;;1.80;;
15764;SDS011;7983;50.744;7.086;2022-07-11T03:10:12;3.88;;;1.70;;
15764;SDS011;7983;50.744;7.086;2022-07-11T03:12:38;3.70;;;1.77;;
15764;SDS011;7983;50.744;7.086;2022-07-11T03:15:06;2.60;;;1.63;;
15764;SDS011;7983;50.744;7.086;2022-07-11T03:17:35;2.13;;;1.50;;
15764;SDS011;7983;50.744;7.086;2022-07-11T03:20:01;3.42;;;1.80;;
15764;SDS011;7983;50.744;7.086;2022-07-11T03:22:30;4.00;;;1.83;;
15764;SDS011;7983;50.744;7.086;2022-07-11T03:24:56;2.40;;;1.70;;
15764;SDS011;7983;50.744;7.086;2022-07-11T03:27:25;3.75;;;1.80;;
15764;SDS011;7983;50.744;7.086;2022-07-11T03:29:51;2.38;;;1.70;;
15764;SDS011;7983;50.744;7.086;2022-07-11T03:32:16;1.95;;;1.65;;
15764;SDS011;7983;50.744;7.086;2022-07-11T03:34:47;1.90;;;1.70;;
15764;SDS011;7983;50.744;7.086;2022-07-11T03:37:34;4.15;;;1.95;;
15764;SDS011;7983;50.744;7.086;2022-07-11T03:40:00;2.95;;;1.92;;
15764;SDS011;7983;50.744;7.086;2022-07-11T03:42:26;2.40;;;1.60;;
15764;SDS011;7983;50.744;7.086;2022-07-11T03:44:54;3.03;;;2.00;;
15764;SDS011;7983;50.744;7.086;2022-07-11T03:47:19;3.42;;;1.95;;
15764;SDS011;7983;50.744;7.086;2022-07-11T03:49:50;2.97;;;1.77;;
15764;SDS011;7983;50.744;7.086;2022-07-11T03:52:20;3.33;;;2.05;;
15764;SDS011;7983;50.744;7.086;2022-07-11T03:54:46;3.58;;;1.60;;
15764;SDS011;7983;50.744;7.086;2022-07-11T03:57:14;3.30;;;2.58;;
15764;SDS011;7983;50.744;7.086;2022-07-11T03:59:41;4.07;;;3.38;;
15764;SDS011;7983;50.744;7.086;2022-07-11T04:02:07;5.43;;;3.13;;
15764;SDS011;7983;50.744;7.086;2022-07-11T04:04:35;3.60;;;2.42;;
15764;SDS011;7983;50.744;7.086;2022-07-11T04:07:01;3.65;;;2.53;;
15764;SDS011;7983;50.744;7.086;2022-07-11T04:09:26;3.05;;;2.15;;
15764;SDS011;7983;50.744;7.086;2022-07-11T04:11:55;2.85;;;2.10;;
15764;SDS011;7983;50.744;7.086;2022-07-11T04:14:20;3.60;;;2.10;;
15764;SDS011;7983;50.744;7.086;2022-07-11T04:16:46;2.67;;;2.10;;
15764;SDS011;7983;50.744;7.086;2022-07-11T04:19:11;3.90;;;2.20;;
15764;SDS011;7983;50.744;7.086;2022-07-11T04:21:37;3.88;;;2.03;;
15764;SDS011;7983;50.744;7.086;2022-07-11T04:24:03;2.60;;;2.08;;
15764;SDS011;7983;50.744;7.086;2022-07-11T04:26:33;3.03;;;2.20;;
15764;SDS011;7983;50.744;7.086;2022-07-11T04:29:03;3.67;;;2.70;;
15764;SDS011;7983;50.744;7.086;2022-07-11T04:31:29;5.15;;;2.13;;
15764;SDS011;7983;50.744;7.086;2022-07-11T04:33:55;3.13;;;2.38;;
15764;SDS011;7983;50.744;7.086;2022-07-11T04:36:20;3.20;;;2.20;;
15764;SDS011;7983;50.744;7.086;2022-07-11T04:38:47;3.33;;;2.45;;
15764;SDS011;7983;50.744;7.086;2022-07-11T04:41:14;4.43;;;2.30;;
15764;SDS011;7983;50.744;7.086;2022-07-11T04:43:42;4.57;;;2.38;;
15764;SDS011;7983;50.744;7.086;2022-07-11T04:46:09;4.57;;;2.50;;
15764;SDS011;7983;50.744;7.086;2022-07-11T04:48:37;3.42;;;2.17;;
15764;SDS011;7983;50.744;7.086;2022-07-11T04:51:07;2.60;;;2.08;;
15764;SDS011;7983;50.744;7.086;2022-07-11T04:53:34;3.55;;;2.72;;
15764;SDS011;7983;50.744;7.086;2022-07-11T04:55:59;4.70;;;2.95;;
15764;SDS011;7983;50.744;7.086;2022-07-11T04:58:28;5.10;;;2.63;;
15764;SDS011;7983;50.744;7.086;2022-07-11T05:00:59;2.97;;;2.40;;
15764;SDS011;7983;50.744;7.086;2022-07-11T05:03:25;3.72;;;2.28;;
15764;SDS011;7983;50.744;7.086;2022-07-11T05:05:51;3.42;;;2.58;;
15764;SDS011;7983;50.744;7.086;2022-07-11T05:08:16;4.05;;;2.55;;
15764;SDS011;7983;50.744;7.086;2022-07-11T05:10:44;3.17;;;2.30;;
15764;SDS011;7983;50.744;7.086;2022-07-11T05:13:12;4.03;;;2.80;;
15764;SDS011;7983;50.744;7.086;2022-07-11T05:15:40;5.88;;;3.28;;
15764;SDS011;7983;50.744;7.086;2022-07-11T05:18:06;5.25;;;2.65;;
15764;SDS011;7983;50.744;7.086;2022-07-11T05:20:34;4.90;;;3.58;;
15764;SDS011;7983;50.744;7.086;2022-07-11T05:23:01;4.82;;;3.10;;
15764;SDS011;7983;50.744;7.086;2022-07-11T05:25:29;5.25;;;3.58;;
15764;SDS011;7983;50.744;7.086;2022-07-11T05:28:00;6.68;;;4.13;;
15764;SDS011;7983;50.744;7.086;2022-07-11T05:30:25;4.68;;;3.47;;
15764;SDS011;7983;50.744;7.086;2022-07-11T05:32:51;4.90;;;3.30;;
15764;SDS011;7983;50.744;7.086;2022-07-11T05:35:19;3.67;;;3.10;;
15764;SDS011;7983;50.744;7.086;2022-07-11T05:37:44;3.78;;;2.75;;
15764;SDS011;7983;50.744;7.086;2022-07-11T05:40:12;5.20;;;3.30;;
15764;SDS011;7983;50.744;7.086;2022-07-11T05:42:40;4.28;;;2.65;;
15764;SDS011;7983;50.744;7.086;2022-07-11T05:45:06;4.60;;;2.55;;
15764;SDS011;7983;50.744;7.086;2022-07-11T05:47:32;5.32;;;2.60;;
15764;SDS011;7983;50.744;7.086;2022-07-11T05:49:58;3.47;;;2.58;;
15764;SDS011;7983;50.744;7.086;2022-07-11T05:52:23;4.28;;;2.72;;
15764;SDS011;7983;50.744;7.086;2022-07-11T05:54:49;3.78;;;2.55;;
15764;SDS011;7983;50.744;7.086;2022-07-11T05:57:15;3.42;;;2.33;;
15764;SDS011;7983;50.744;7.086;2022-07-11T05:59:40;3.50;;;2.53;;
15764;SDS011;7983;50.744;7.086;2022-07-11T06:02:08;3.47;;;2.60;;
15764;SDS011;7983;50.744;7.086;2022-07-11T06:04:34;3.53;;;2.63;;
15764;SDS011;7983;50.744;7.086;2022-07-11T06:07:00;4.60;;;3.05;;
15764;SDS011;7983;50.744;7.086;2022-07-11T06:09:31;9.13;;;3.30;;
15764;SDS011;7983;50.744;7.086;2022-07-11T06:11:56;5.95;;;3.30;;
15764;SDS011;7983;50.744;7.086;2022-07-11T06:14:22;4.60;;;3.03;;
15764;SDS011;7983;50.744;7.086;2022-07-11T06:16:49;4.90;;;3.90;;
15764;SDS011;7983;50.744;7.086;2022-07-11T06:19:15;4.32;;;3.78;;
15764;SDS011;7983;50.744;7.086;2022-07-11T06:21:45;5.22;;;4.03;;
15764;SDS011;7983;50.744;7.086;2022-07-11T06:24:11;4.78;;;3.80;;
15764;SDS011;7983;50.744;7.086;2022-07-11T06:26:37;5.05;;;3.25;;
15764;SDS011;7983;50.744;7.086;2022-07-11T06:29:05;5.32;;;3.25;;
15764;SDS011;7983;50.744;7.086;2022-07-11T06:31:30;3.97;;;2.78;;
15764;SDS011;7983;50.744;7.086;2022-07-11T06:33:56;3.38;;;2.55;;
15764;SDS011;7983;50.744;7.086;2022-07-11T06:36:25;4.53;;;3.00;;
15764;SDS011;7983;50.744;7.086;2022-07-11T06:38:51;4.03;;;2.33;;
15764;SDS011;7983;50.744;7.086;2022-07-11T06:41:18;3.40;;;2.38;;
15764;SDS011;7983;50.744;7.086;2022-07-11T06:43:47;5.13;;;3.03;;
15764;SDS011;7983;50.744;7.086;2022-07-11T06:46:15;5.28;;;2.38;;
15764;SDS011;7983;50.744;7.086;2022-07-11T06:48:43;3.45;;;2.40;;
15764;SDS011;7983;50.744;7.086;2022-07-11T06:51:11;5.45;;;2.08;;
15764;SDS011;7983;50.744;7.086;2022-07-11T06:53:37;3.85;;;2.05;;
15764;SDS011;7983;50.744;7.086;2022-07-11T06:56:03;5.05;;;2.40;;
15764;SDS011;7983;50.744;7.086;2022-07-11T06:58:31;3.63;;;2.38;;
15764;SDS011;7983;50.744;7.086;2022-07-11T07:01:00;3.72;;;2.63;;
15764;SDS011;7983;50.744;7.086;2022-07-11T07:03:34;5.18;;;3.15;;
15764;SDS011;7983;50.744;7.086;2022-07-11T07:06:00;4.85;;;4.18;;
15764;SDS011;7983;50.744;7.086;2022-07-11T07:08:27;4.97;;;3.80;;
15764;SDS011;7983;50.744;7.086;2022-07-11T07:10:58;5.18;;;4.57;;
15764;SDS011;7983;50.744;7.086;2022-07-11T07:13:28;6.78;;;5.47;;
15764;SDS011;7983;50.744;7.086;2022-07-11T07:15:54;7.70;;;5.80;;
15764;SDS011;7983;50.744;7.086;2022-07-11T07:18:22;9.00;;;6.97;;
15764;SDS011;7983;50.744;7.086;2022-07-11T07:20:49;8.73;;;6.50;;
15764;SDS011;7983;50.744;7.086;2022-07-11T07:23:14;8.95;;;6.32;;
15764;SDS011;7983;50.744;7.086;2022-07-11T07:25:40;7.85;;;6.10;;
15764;SDS011;7983;50.744;7.086;2022-07-11T07:28:06;13.98;;;5.40;;
15764;SDS011;7983;50.744;7.086;2022-07-11T07:30:32;6.30;;;4.60;;
15764;SDS011;7983;50.744;7.086;2022-07-11T07:33:00;5.53;;;4.20;;
15764;SDS011;7983;50.744;7.086;2022-07-11T07:35:26;5.28;;;4.35;;
15764;SDS011;7983;50.744;7.086;2022-07-11T07:37:52;5.25;;;4.25;;
15764;SDS011;7983;50.744;7.086;2022-07-11T07:40:18;7.70;;;5.70;;
15764;SDS011;7983;50.744;7.086;2022-07-11T07:42:46;7.35;;;5.43;;
15764;SDS011;7983;50.744;7.086;2022-07-11T07:45:12;5.90;;;5.03;;
15764;SDS011;7983;50.744;7.086;2022-07-11T07:47:40;7.53;;;6.07;;
15764;SDS011;7983;50.744;7.086;2022-07-11T07:50:06;8.30;;;6.53;;
15764;SDS011;7983;50.744;7.086;2022-07-11T07:52:37;9.80;;;8.10;;
15764;SDS011;7983;50.744;7.086;2022-07-11T07:55:03;12.02;;;8.63;;
15764;SDS011;7983;50.744;7.086;2022-07-11T07:57:30;11.65;;;10.10;;
15764;SDS011;7983;50.744;7.086;2022-07-11T07:59:55;13.45;;;11.85;;
15764;SDS011;7983;50.744;7.086;2022-07-11T08:02:41;12.68;;;10.18;;
15764;SDS011;7983;50.744;7.086;2022-07-11T08:05:11;13.00;;;10.65;;
15764;SDS011;7983;50.744;7.086;2022-07-11T08:07:37;13.48;;;10.57;;
15764;SDS011;7983;50.744;7.086;2022-07-11T08:10:05;12.13;;;9.65;;
15764;SDS011;7983;50.744;7.086;2022-07-11T08:12:34;16.00;;;10.93;;
15764;SDS011;7983;50.744;7.086;2022-07-11T08:15:02;16.38;;;10.05;;
15764;SDS011;7983;50.744;7.086;2022-07-11T08:17:28;12.35;;;9.45;;
15764;SDS011;7983;50.744;7.086;2022-07-11T08:19:54;17.00;;;9.82;;
15764;SDS011;7983;50.744;7.086;2022-07-11T08:22:22;13.30;;;9.25;;
15764;SDS011;7983;50.744;7.086;2022-07-11T08:24:50;12.10;;;9.50;;
15764;SDS011;7983;50.744;7.086;2022-07-11T08:27:16;11.82;;;8.60;;
15764;SDS011;7983;50.744;7.086;2022-07-11T08:29:41;13.02;;;9.32;;
15764;SDS011;7983;50.744;7.086;2022-07-11T08:32:09;11.55;;;9.57;;
15764;SDS011;7983;50.744;7.086;2022-07-11T08:34:36;10.68;;;9.43;;
15764;SDS011;7983;50.744;7.086;2022-07-11T08:37:02;11.98;;;9.50;;
15764;SDS011;7983;50.744;7.086;2022-07-11T08:39:27;8.88;;;7.97;;
15764;SDS011;7983;50.744;7.086;2022-07-11T08:41:55;9.07;;;8.13;;
15764;SDS011;7983;50.744;7.086;2022-07-11T08:44:22;9.02;;;7.63;;
15764;SDS011;7983;50.744;7.086;2022-07-11T08:46:50;11.02;;;8.00;;
15764;SDS011;7983;50.744;7.086;2022-07-11T08:49:18;8.60;;;7.68;;
15764;SDS011;7983;50.744;7.086;2022-07-11T08:51:47;8.32;;;7.40;;
15764;SDS011;7983;50.744;7.086;2022-07-11T08:54:13;7.75;;;6.97;;
15764;SDS011;7983;50.744;7.086;2022-07-11T08:56:38;8.23;;;7.22;;
15764;SDS011;7983;50.744;7.086;2022-07-11T08:59:06;8.57;;;7.47;;
15764;SDS011;7983;50.744;7.086;2022-07-11T09:01:36;7.20;;;6.50;;
15764;SDS011;7983;50.744;7.086;2022-07-11T09:04:10;9.60;;;7.32;;
15764;SDS011;7983;50.744;7.086;2022-07-11T09:06:38;7.50;;;6.70;;
15764;SDS011;7983;50.744;7.086;2022-07-11T09:09:07;7.40;;;6.68;;
15764;SDS011;7983;50.744;7.086;2022-07-11T09:11:50;9.00;;;6.90;;
15764;SDS011;7983;50.744;7.086;2022-07-11T09:14:24;8.90;;;7.10;;
15764;SDS011;7983;50.744;7.086;2022-07-11T09:17:12;7.40;;;6.70;;
15764;SDS011;7983;50.744;7.086;2022-07-11T09:19:38;7.57;;;6.78;;
15764;SDS011;7983;50.744;7.086;2022-07-11T09:22:05;7.25;;;6.53;;
15764;SDS011;7983;50.744;7.086;2022-07-11T09:27:51;7.30;;;6.07;;
15764;SDS011;7983;50.744;7.086;2022-07-11T09:30:31;6.22;;;5.63;;
15764;SDS011;7983;50.744;7.086;2022-07-11T09:33:01;6.30;;;5.70;;
15764;SDS011;7983;50.744;7.086;2022-07-11T09:35:31;6.38;;;5.78;;
15764;SDS011;7983;50.744;7.086;2022-07-11T09:38:01;6.93;;;6.20;;
15764;SDS011;7983;50.744;7.086;2022-07-11T09:40:34;7.75;;;6.00;;
15764;SDS011;7983;50.744;7.086;2022-07-11T09:43:00;8.50;;;7.32;;
15764;SDS011;7983;50.744;7.086;2022-07-11T09:45:30;8.10;;;6.45;;
15764;SDS011;7983;50.744;7.086;2022-07-11T09:47:58;7.93;;;7.00;;
15764;SDS011;7983;50.744;7.086;2022-07-11T09:50:28;7.07;;;6.38;;
15764;SDS011;7983;50.744;7.086;2022-07-11T09:55:38;7.57;;;6.35;;
15764;SDS011;7983;50.744;7.086;2022-07-11T09:58:06;8.32;;;7.00;;
15764;SDS011;7983;50.744;7.086;2022-07-11T10:00:34;10.80;;;7.57;;
15764;SDS011;7983;50.744;7.086;2022-07-11T10:03:01;8.70;;;6.85;;
15764;SDS011;7983;50.744;7.086;2022-07-11T10:05:32;8.88;;;7.53;;
15764;SDS011;7983;50.744;7.086;2022-07-11T10:07:59;7.88;;;7.10;;
15764;SDS011;7983;50.744;7.086;2022-07-11T10:10:26;8.02;;;7.22;;
15764;SDS011;7983;50.744;7.086;2022-07-11T10:12:53;8.05;;;7.25;;
15764;SDS011;7983;50.744;7.086;2022-07-11T10:15:23;9.18;;;8.00;;
15764;SDS011;7983;50.744;7.086;2022-07-11T10:26:12;7.25;;;6.45;;
15764;SDS011;7983;50.744;7.086;2022-07-11T10:34:02;7.38;;;6.65;;
15764;SDS011;7983;50.744;7.086;2022-07-11T10:36:38;7.70;;;6.93;;
15764;SDS011;7983;50.744;7.086;2022-07-11T10:39:17;7.45;;;6.75;;
15764;SDS011;7983;50.744;7.086;2022-07-11T10:41:44;7.05;;;6.38;;
15764;SDS011;7983;50.744;7.086;2022-07-11T10:44:12;8.30;;;6.60;;
15764;SDS011;7983;50.744;7.086;2022-07-11T10:46:40;6.28;;;5.68;;
15764;SDS011;7983;50.744;7.086;2022-07-11T10:57:19;5.85;;;5.05;;
15764;SDS011;7983;50.744;7.086;2022-07-11T10:59:56;5.50;;;5.00;;
15764;SDS011;7983;50.744;7.086;2022-07-11T11:02:28;5.03;;;4.63;;
15764;SDS011;7983;50.744;7.086;2022-07-11T11:10:04;4.05;;;3.40;;
15764;SDS011;7983;50.744;7.086;2022-07-11T11:23:26;4.32;;;3.92;;
15764;SDS011;7983;50.744;7.086;2022-07-11T11:26:13;4.95;;;4.45;;
15764;SDS011;7983;50.744;7.086;2022-07-11T11:28:58;4.45;;;4.05;;
15764;SDS011;7983;50.744;7.086;2022-07-11T11:31:30;4.45;;;4.05;;
15764;SDS011;7983;50.744;7.086;2022-07-11T11:33:59;4.97;;;4.35;;
15764;SDS011;7983;50.744;7.086;2022-07-11T11:36:27;5.75;;;4.60;;
15764;SDS011;7983;50.744;7.086;2022-07-11T11:38:53;4.22;;;3.92;;
15764;SDS011;7983;50.744;7.086;2022-07-11T11:41:38;5.35;;;4.85;;
15764;SDS011;7983;50.744;7.086;2022-07-11T11:44:06;6.38;;;5.50;;
15764;SDS011;7983;50.744;7.086;2022-07-11T11:46:32;6.63;;;6.03;;
15764;SDS011;7983;50.744;7.086;2022-07-11T11:49:02;6.72;;;6.13;;
15764;SDS011;7983;50.744;7.086;2022-07-11T11:51:30;5.90;;;5.40;;
15764;SDS011;7983;50.744;7.086;2022-07-11T11:53:57;7.10;;;5.72;;
15764;SDS011;7983;50.744;7.086;2022-07-11T11:59:02;5.97;;;5.47;;
15764;SDS011;7983;50.744;7.086;2022-07-11T12:01:31;6.03;;;5.53;;
15764;SDS011;7983;50.744;7.086;2022-07-11T12:03:58;6.80;;;6.10;;
15764;SDS011;7983;50.744;7.086;2022-07-11T12:06:28;6.43;;;5.57;;
15764;SDS011;7983;50.744;7.086;2022-07-11T12:08:58;4.55;;;4.15;;
15764;SDS011;7983;50.744;7.086;2022-07-11T12:11:24;4.32;;;3.92;;
15764;SDS011;7983;50.744;7.086;2022-07-11T12:13:56;4.47;;;3.42;;
15764;SDS011;7983;50.744;7.086;2022-07-11T12:16:23;4.10;;;3.55;;
15764;SDS011;7983;50.744;7.086;2022-07-11T12:19:08;5.57;;;3.38;;
15764;SDS011;7983;50.744;7.086;2022-07-11T12:21:45;4.22;;;3.83;;
15764;SDS011;7983;50.744;7.086;2022-07-11T12:24:18;4.07;;;3.35;;
15764;SDS011;7983;50.744;7.086;2022-07-11T12:26:49;4.70;;;3.28;;
15764;SDS011;7983;50.744;7.086;2022-07-11T12:29:18;4.55;;;3.40;;
15764;SDS011;7983;50.744;7.086;2022-07-11T12:31:59;4.95;;;3.30;;
15764;SDS011;7983;50.744;7.086;2022-07-11T12:37:05;6.13;;;5.38;;
15764;SDS011;7983;50.744;7.086;2022-07-11T12:39:36;7.13;;;6.43;;
15764;SDS011;7983;50.744;7.086;2022-07-11T12:42:28;8.15;;;7.35;;
15764;SDS011;7983;50.744;7.086;2022-07-11T12:47:43;8.73;;;7.82;;
15764;SDS011;7983;50.744;7.086;2022-07-11T12:52:40;7.00;;;6.40;;
15764;SDS011;7983;50.744;7.086;2022-07-11T12:55:09;7.68;;;6.97;;
15764;SDS011;7983;50.744;7.086;2022-07-11T12:57:37;7.63;;;6.93;;
15764;SDS011;7983;50.744;7.086;2022-07-11T13:00:11;7.60;;;6.90;;
15764;SDS011;7983;50.744;7.086;2022-07-11T13:02:41;7.28;;;6.57;;
15764;SDS011;7983;50.744;7.086;2022-07-11T13:05:12;8.15;;;7.32;;
15764;SDS011;7983;50.744;7.086;2022-07-11T13:07:41;7.93;;;7.22;;
15764;SDS011;7983;50.744;7.086;2022-07-11T13:10:26;8.45;;;7.47;;
15764;SDS011;7983;50.744;7.086;2022-07-11T13:13:13;8.48;;;7.68;;
15764;SDS011;7983;50.744;7.086;2022-07-11T13:15:39;9.13;;;8.32;;
15764;SDS011;7983;50.744;7.086;2022-07-11T13:18:07;9.35;;;8.40;;
15764;SDS011;7983;50.744;7.086;2022-07-11T13:20:34;10.15;;;9.15;;
15764;SDS011;7983;50.744;7.086;2022-07-11T13:23:00;10.25;;;9.18;;
15764;SDS011;7983;50.744;7.086;2022-07-11T13:25:29;11.20;;;10.05;;
15764;SDS011;7983;50.744;7.086;2022-07-11T13:27:54;9.77;;;8.88;;
15764;SDS011;7983;50.744;7.086;2022-07-11T13:30:22;11.27;;;10.18;;
15764;SDS011;7983;50.744;7.086;2022-07-11T13:32:54;9.38;;;8.50;;
15764;SDS011;7983;50.744;7.086;2022-07-11T13:35:20;10.18;;;8.77;;
15764;SDS011;7983;50.744;7.086;2022-07-11T13:37:46;9.00;;;8.18;;
15764;SDS011;7983;50.744;7.086;2022-07-11T13:40:21;10.32;;;9.32;;
15764;SDS011;7983;50.744;7.086;2022-07-11T13:42:48;10.80;;;9.75;;
15764;SDS011;7983;50.744;7.086;2022-07-11T13:45:15;10.00;;;9.00;;
15764;SDS011;7983;50.744;7.086;2022-07-11T13:47:42;10.18;;;9.23;;
15764;SDS011;7983;50.744;7.086;2022-07-11T13:50:08;9.98;;;8.98;;
15764;SDS011;7983;50.744;7.086;2022-07-11T13:52:34;10.00;;;9.10;;
15764;SDS011;7983;50.744;7.086;2022-07-11T13:55:00;10.13;;;9.13;;
15764;SDS011;7983;50.744;7.086;2022-07-11T13:57:27;9.57;;;8.68;;
15764;SDS011;7983;50.744;7.086;2022-07-11T13:59:53;9.43;;;8.52;;
15764;SDS011;7983;50.744;7.086;2022-07-11T14:02:21;9.82;;;8.85;;
15764;SDS011;7983;50.744;7.086;2022-07-11T14:04:50;10.60;;;9.20;;
15764;SDS011;7983;50.744;7.086;2022-07-11T14:07:16;9.88;;;8.98;;
15764;SDS011;7983;50.744;7.086;2022-07-11T14:09:41;10.77;;;9.75;;
15764;SDS011;7983;50.744;7.086;2022-07-11T14:12:08;11.07;;;9.98;;
15764;SDS011;7983;50.744;7.086;2022-07-11T14:14:37;10.60;;;9.50;;
15764;SDS011;7983;50.744;7.086;2022-07-11T14:17:05;11.55;;;10.45;;
15764;SDS011;7983;50.744;7.086;2022-07-11T14:19:31;10.57;;;9.57;;
15764;SDS011;7983;50.744;7.086;2022-07-11T14:21:58;11.80;;;10.70;;
15764;SDS011;7983;50.744;7.086;2022-07-11T14:24:24;11.93;;;10.73;;
15764;SDS011;7983;50.744;7.086;2022-07-11T14:26:51;11.57;;;10.48;;
15764;SDS011;7983;50.744;7.086;2022-07-11T14:29:20;11.75;;;10.55;;
15764;SDS011;7983;50.744;7.086;2022-07-11T14:31:50;12.43;;;11.23;;
15764;SDS011;7983;50.744;7.086;2022-07-11T14:34:17;11.23;;;10.13;;
15764;SDS011;7983;50.744;7.086;2022-07-11T14:36:45;10.25;;;9.25;;
15764;SDS011;7983;50.744;7.086;2022-07-11T14:39:12;11.10;;;10.02;;
15764;SDS011;7983;50.744;7.086;2022-07-11T14:41:41;11.63;;;10.52;;
15764;SDS011;7983;50.744;7.086;2022-07-11T14:44:07;11.70;;;10.63;;
15764;SDS011;7983;50.744;7.086;2022-07-11T14:46:36;11.25;;;10.15;;
15764;SDS011;7983;50.744;7.086;2022-07-11T14:49:02;11.15;;;9.88;;
15764;SDS011;7983;50.744;7.086;2022-07-11T14:51:32;11.02;;;9.77;;
15764;SDS011;7983;50.744;7.086;2022-07-11T14:53:58;11.63;;;10.50;;
15764;SDS011;7983;50.744;7.086;2022-07-11T14:56:27;10.55;;;9.55;;
15764;SDS011;7983;50.744;7.086;2022-07-11T14:58:54;11.35;;;10.25;;
15764;SDS011;7983;50.744;7.086;2022-07-11T15:01:23;14.05;;;10.90;;
15764;SDS011;7983;50.744;7.086;2022-07-11T15:03:49;11.27;;;10.18;;
15764;SDS011;7983;50.744;7.086;2022-07-11T15:06:15;11.43;;;10.32;;
15764;SDS011;7983;50.744;7.086;2022-07-11T15:08:47;11.50;;;10.30;;
15764;SDS011;7983;50.744;7.086;2022-07-11T15:11:31;10.52;;;9.52;;
15764;SDS011;7983;50.744;7.086;2022-07-11T15:14:17;10.75;;;9.75;;
15764;SDS011;7983;50.744;7.086;2022-07-11T15:16:43;10.07;;;9.10;;
15764;SDS011;7983;50.744;7.086;2022-07-11T15:19:10;10.00;;;9.02;;
15764;SDS011;7983;50.744;7.086;2022-07-11T15:21:36;9.98;;;9.00;;
15764;SDS011;7983;50.744;7.086;2022-07-11T15:24:02;9.88;;;8.98;;
15764;SDS011;7983;50.744;7.086;2022-07-11T15:26:30;10.82;;;9.82;;
15764;SDS011;7983;50.744;7.086;2022-07-11T15:28:56;10.40;;;9.40;;
15764;SDS011;7983;50.744;7.086;2022-07-11T15:31:22;9.48;;;8.57;;
15764;SDS011;7983;50.744;7.086;2022-07-11T15:33:49;9.60;;;8.55;;
15764;SDS011;7983;50.744;7.086;2022-07-11T15:36:18;8.63;;;7.82;;
15764;SDS011;7983;50.744;7.086;2022-07-11T15:38:44;8.35;;;7.55;;
15764;SDS011;7983;50.744;7.086;2022-07-11T15:41:13;27.80;;;22.33;;
15764;SDS011;7983;50.744;7.086;2022-07-11T15:43:42;15.52;;;13.82;;
15764;SDS011;7983;50.744;7.086;2022-07-11T15:46:09;12.85;;;11.50;;
15764;SDS011;7983;50.744;7.086;2022-07-11T15:48:37;10.75;;;9.75;;
15764;SDS011;7983;50.744;7.086;2022-07-11T15:51:03;9.90;;;8.90;;
15764;SDS011;7983;50.744;7.086;2022-07-11T15:53:29;9.23;;;8.40;;
15764;SDS011;7983;50.744;7.086;2022-07-11T15:55:57;8.73;;;7.88;;
15764;SDS011;7983;50.744;7.086;2022-07-11T15:58:25;8.30;;;7.50;;
15764;SDS011;7983;50.744;7.086;2022-07-11T16:00:55;7.93;;;7.13;;